Mc Carley, Mississippi
Current Conditions -  °F | °C
As of 12:53 AM on Thursday 18 Dec 2014 (Local Time) from KGWO Reporting Station
Overcast Overcast  
Wind Chill: 42°   Ceiling: 8000
Heat Index: 44°   Visibility: 10mi
Dew Point: 37°   Wind: 5mph
Humidity: 76%   Direction: 20°NNE
Pressure: 30.24"   Gusts: NA
Location:  33.5217°N, 89.8329°W
Report Text: KGWO 180653Z AUTO 02004KT 10SM OVC080 07/03 A3024 RMK AO2 SLP239 T00670028
Loading
Personal Weather Stations






























Interactive Weather Map New forecast layout! Learn more

10-Day Weather Forecast

Advertisements
Track Severe Weather on mobile